Time;durP1;ratioP1;P1;durP2;ratioP2;P2;SDS_P1;SDS_P2;PMS_P1;PMS_P2;Temp;Humidity;BMP_temperature;BMP_pressure;BME280_temperature;BME280_humidity;BME280_pressure;Samples;Min_cycle;Max_cycle;Signal;HPM_P1;HPM_P2
2021/11/27 00:01:52;;;;;;;1999.90;333.88;;;;;;;;;;4966640;28;20064;-92
2021/11/27 00:04:20;;;;;;;1999.90;818.60;;;;;;;;;;4945407;28;20031;-92
2021/11/27 00:06:46;;;;;;;1915.35;408.50;;;;;;;;;;4970611;28;20031;-94
2021/11/27 00:09:13;;;;;;;1893.80;261.75;;;;;;;;;;4974042;28;20052;-90
2021/11/27 00:11:45;;;;;;;1973.72;835.33;;;;;;;;;;4972273;28;20042;-89
2021/11/27 00:14:11;;;;;;;1957.03;236.00;;;;;;;;;;4965143;28;20112;-91
2021/11/27 00:16:37;;;;;;;1999.90;633.92;;;;;;;;;;4965589;28;20038;-92
2021/11/27 00:19:04;;;;;;;1909.10;224.80;;;;;;;;;;4985313;28;20583;-89
2021/11/27 00:21:29;;;;;;;1906.10;793.17;;;;;;;;;;4975437;28;20558;-91
2021/11/27 00:23:59;;;;;;;1999.90;999.90;;;;;;;;;;4963132;28;20026;-94
2021/11/27 00:26:29;;;;;;;1999.90;215.70;;;;;;;;;;4995593;28;20038;-94
2021/11/27 00:28:55;;;;;;;1999.90;363.27;;;;;;;;;;4995198;28;20419;-92
2021/11/27 00:31:24;;;;;;;1999.90;999.90;;;;;;;;;;4980011;28;20038;-91
2021/11/27 00:33:52;;;;;;;1999.90;999.90;;;;;;;;;;4979597;28;20485;-90
2021/11/27 00:36:17;;;;;;;1662.93;569.08;;;;;;;;;;4979727;28;20126;-89
2021/11/27 00:38:44;;;;;;;1999.90;812.75;;;;;;;;;;4979633;28;20084;-90
2021/11/27 00:41:11;;;;;;;1999.90;330.67;;;;;;;;;;4983332;28;20030;-91
2021/11/27 00:43:38;;;;;;;1999.90;253.90;;;;;;;;;;4983287;28;20042;-92
2021/11/27 00:46:06;;;;;;;1970.03;629.97;;;;;;;;;;4999553;28;20507;-89
2021/11/27 00:48:33;;;;;;;1265.85;146.50;;;;;;;;;;4983171;28;20037;-90
2021/11/27 00:51:06;;;;;;;1999.90;616.67;;;;;;;;;;4983086;28;20037;-89
2021/11/27 00:53:31;;;;;;;1722.10;263.45;;;;;;;;;;4999192;28;20046;-91
2021/11/27 00:55:58;;;;;;;1566.28;543.95;;;;;;;;;;4999220;28;20122;-87
2021/11/27 00:58:26;;;;;;;1999.90;616.72;;;;;;;;;;4983222;28;20489;-89
2021/11/27 01:00:55;;;;;;;1999.90;999.90;;;;;;;;;;4968320;28;20037;-88
2021/11/27 01:03:23;;;;;;;1999.90;656.90;;;;;;;;;;4980154;28;20042;-91
2021/11/27 01:05:50;;;;;;;1985.68;222.70;;;;;;;;;;4995981;28;20026;-90
2021/11/27 01:08:17;;;;;;;1999.90;814.38;;;;;;;;;;4995954;28;20073;-90
2021/11/27 01:10:51;;;;;;;1932.22;285.63;;;;;;;;;;4964736;28;20081;-92
2021/11/27 01:13:20;;;;;;;1482.72;171.38;;;;;;;;;;4998852;28;20106;-90
2021/11/27 01:15:47;;;;;;;1999.90;999.90;;;;;;;;;;4982873;28;20026;-90
2021/11/27 01:18:15;;;;;;;1999.90;644.90;;;;;;;;;;4999248;28;20038;-90
2021/11/27 01:20:44;;;;;;;1715.60;564.42;;;;;;;;;;4982782;28;20042;-91
2021/11/27 01:23:11;;;;;;;1960.40;799.42;;;;;;;;;;4982792;28;20097;-88
2021/11/27 01:25:36;;;;;;;1848.43;795.67;;;;;;;;;;4982515;28;20040;-88
2021/11/27 01:28:05;;;;;;;1946.22;811.60;;;;;;;;;;4981956;28;20041;-88
2021/11/27 01:30:32;;;;;;;1434.78;545.63;;;;;;;;;;4998587;28;20116;-88
2021/11/27 01:32:57;;;;;;;1999.90;257.27;;;;;;;;;;4981978;28;20519;-89
2021/11/27 01:35:26;;;;;;;1802.53;263.23;;;;;;;;;;4997842;28;20030;-88
2021/11/27 01:37:52;;;;;;;1999.90;824.03;;;;;;;;;;4981921;28;20046;-88
2021/11/27 01:40:23;;;;;;;1783.97;559.35;;;;;;;;;;4965961;28;20080;-86
2021/11/27 01:42:49;;;;;;;1875.60;719.43;;;;;;;;;;4981957;28;20034;-87
2021/11/27 01:45:17;;;;;;;1792.93;190.88;;;;;;;;;;4965887;28;20577;-87
2021/11/27 01:47:54;;;;;;;1999.90;999.90;;;;;;;;;;4982012;28;20037;-87
2021/11/27 01:50:21;;;;;;;1349.70;105.63;;;;;;;;;;4982056;28;20400;-88
2021/11/27 01:52:46;;;;;;;1826.55;178.48;;;;;;;;;;4981153;28;20030;-88
2021/11/27 01:55:12;;;;;;;1999.90;999.90;;;;;;;;;;4981160;28;20041;-87
2021/11/27 01:57:37;;;;;;;1999.90;999.90;;;;;;;;;;4965332;28;20073;-86
2021/11/27 02:00:06;;;;;;;1589.97;152.57;;;;;;;;;;4980868;28;20038;-87
2021/11/27 02:02:31;;;;;;;1999.90;999.90;;;;;;;;;;4997793;28;20563;-88
2021/11/27 02:05:00;;;;;;;1774.30;563.83;;;;;;;;;;4980840;28;20103;-88
2021/11/27 02:07:26;;;;;;;1999.90;999.90;;;;;;;;;;4994472;28;20058;-89
2021/11/27 02:09:52;;;;;;;1447.80;555.63;;;;;;;;;;4978081;28;20417;-87
2021/11/27 02:12:18;;;;;;;1795.82;580.10;;;;;;;;;;4994411;28;20034;-85
2021/11/27 02:14:47;;;;;;;1999.90;999.90;;;;;;;;;;4978083;28;20031;-87
2021/11/27 02:17:13;;;;;;;1999.90;999.90;;;;;;;;;;4978282;28;20036;-90
2021/11/27 02:19:42;;;;;;;1730.82;767.25;;;;;;;;;;4988257;28;20041;-88
2021/11/27 02:22:10;;;;;;;1999.90;999.90;;;;;;;;;;4981160;28;20076;-89
2021/11/27 02:24:37;;;;;;;1835.78;567.88;;;;;;;;;;4981390;28;20065;-87
2021/11/27 02:27:02;;;;;;;1403.60;116.63;;;;;;;;;;4980838;28;20132;-87
2021/11/27 02:29:29;;;;;;;1956.20;795.92;;;;;;;;;;4980579;28;20033;-88
2021/11/27 02:31:56;;;;;;;1734.03;771.67;;;;;;;;;;4980237;28;20030;-87
2021/11/27 02:34:21;;;;;;;1225.93;110.13;;;;;;;;;;4996689;28;20113;-87
2021/11/27 02:36:52;;;;;;;1805.20;162.20;;;;;;;;;;4980652;28;20120;-89
2021/11/27 02:39:19;;;;;;;1345.13;113.93;;;;;;;;;;4993405;28;20042;-86
2021/11/27 02:41:44;;;;;;;1737.35;769.10;;;;;;;;;;4945490;28;20034;-85
2021/11/27 02:44:11;;;;;;;1864.07;570.35;;;;;;;;;;4977255;28;20394;-91
2021/11/27 02:46:37;;;;;;;1564.57;547.00;;;;;;;;;;4977306;28;20073;-88
2021/11/27 02:49:03;;;;;;;1999.90;999.90;;;;;;;;;;4945533;28;20038;-89
2021/11/27 02:51:29;;;;;;;1418.40;126.15;;;;;;;;;;4977115;28;20044;-88
2021/11/27 02:53:56;;;;;;;1916.57;793.00;;;;;;;;;;4977637;28;20042;-88
2021/11/27 02:56:22;;;;;;;1903.47;790.17;;;;;;;;;;4977412;28;20040;-87
2021/11/27 02:58:49;;;;;;;1628.60;580.92;;;;;;;;;;4979827;28;20038;-85
2021/11/27 03:01:15;;;;;;;1435.72;530.10;;;;;;;;;;5021739;28;20030;-88
2021/11/27 03:03:43;;;;;;;1455.80;546.55;;;;;;;;;;4996549;28;20046;-89
2021/11/27 03:06:10;;;;;;;1798.55;777.30;;;;;;;;;;4964259;28;20034;-88
2021/11/27 03:08:37;;;;;;;1838.18;580.17;;;;;;;;;;4979463;28;20037;-90
2021/11/27 03:11:04;;;;;;;1475.45;136.35;;;;;;;;;;4980568;28;20041;-88
2021/11/27 03:13:34;;;;;;;1999.90;999.90;;;;;;;;;;4980495;28;20041;-88
2021/11/27 03:16:01;;;;;;;1960.47;788.90;;;;;;;;;;4996786;28;20030;-90
2021/11/27 03:18:33;;;;;;;1925.78;793.65;;;;;;;;;;4980744;28;20037;-89
2021/11/27 03:21:02;;;;;;;1387.68;530.85;;;;;;;;;;4979834;28;20129;-87
2021/11/27 03:23:30;;;;;;;1999.90;999.90;;;;;;;;;;4980881;28;20115;-88
2021/11/27 03:25:57;;;;;;;671.28;59.67;;;;;;;;;;4996734;28;20069;-89
2021/11/27 03:28:23;;;;;;;1999.90;999.90;;;;;;;;;;4944815;28;20046;-88
2021/11/27 03:30:51;;;;;;;1860.28;777.40;;;;;;;;;;4976696;28;20118;-91
2021/11/27 03:33:17;;;;;;;1999.90;999.90;;;;;;;;;;4992915;28;20053;-88
2021/11/27 03:35:42;;;;;;;1461.88;535.97;;;;;;;;;;4960416;28;20038;-86
2021/11/27 03:38:11;;;;;;;1999.90;999.90;;;;;;;;;;4976976;28;20078;-89
2021/11/27 03:40:37;;;;;;;1999.90;999.90;;;;;;;;;;4992838;28;20027;-88
2021/11/27 03:43:02;;;;;;;1035.25;312.17;;;;;;;;;;4979366;28;20073;-87
2021/11/27 03:45:29;;;;;;;1250.28;522.15;;;;;;;;;;4979963;28;20034;-89
2021/11/27 03:48:02;;;;;;;1828.75;772.28;;;;;;;;;;4980084;28;20073;-88
2021/11/27 03:50:33;;;;;;;1999.90;999.90;;;;;;;;;;4980164;28;20088;-89
2021/11/27 03:53:01;;;;;;;1999.90;999.90;;;;;;;;;;4980646;28;20041;-90
2021/11/27 03:55:27;;;;;;;1999.90;999.90;;;;;;;;;;4980119;28;20057;-89
2021/11/27 03:57:54;;;;;;;1999.90;999.90;;;;;;;;;;4979582;28;20123;-89
2021/11/27 04:00:21;;;;;;;1999.90;999.90;;;;;;;;;;4979981;28;20033;-89
2021/11/27 04:02:47;;;;;;;1879.07;788.85;;;;;;;;;;4979699;28;20083;-91
2021/11/27 04:05:15;;;;;;;1120.25;114.70;;;;;;;;;;4976418;28;20058;-90
2021/11/27 04:07:46;;;;;;;1999.90;999.90;;;;;;;;;;4966486;28;20121;-90
2021/11/27 04:10:14;;;;;;;1999.90;999.90;;;;;;;;;;4995895;28;20030;-89
2021/11/27 04:12:43;;;;;;;1816.53;773.10;;;;;;;;;;4995904;28;20079;-89
2021/11/27 04:15:14;;;;;;;1603.55;556.22;;;;;;;;;;4994794;28;20037;-92
2021/11/27 04:17:43;;;;;;;1999.90;999.90;;;;;;;;;;4979433;28;20037;-91
2021/11/27 04:20:08;;;;;;;1999.90;999.90;;;;;;;;;;4979516;28;20436;-88
2021/11/27 04:22:35;;;;;;;1999.90;999.90;;;;;;;;;;4995960;28;20029;-88
2021/11/27 04:25:02;;;;;;;1999.90;999.90;;;;;;;;;;4970187;28;20113;-88
2021/11/27 04:27:28;;;;;;;1999.90;999.90;;;;;;;;;;4960106;28;20041;-91
2021/11/27 04:29:54;;;;;;;1999.90;999.90;;;;;;;;;;4975867;28;20031;-89
2021/11/27 04:32:22;;;;;;;1999.90;999.90;;;;;;;;;;4976152;28;20052;-90
2021/11/27 04:34:51;;;;;;;1999.90;999.90;;;;;;;;;;4979447;28;20117;-89
2021/11/27 04:37:17;;;;;;;1999.90;999.90;;;;;;;;;;4992414;28;20038;-91
2021/11/27 04:39:44;;;;;;;1999.90;999.90;;;;;;;;;;4976015;28;20034;-89
2021/11/27 04:42:09;;;;;;;1999.90;999.90;;;;;;;;;;4975710;28;20061;-89
2021/11/27 04:44:37;;;;;;;944.15;280.15;;;;;;;;;;4976176;28;20473;-88
2021/11/27 04:47:05;;;;;;;1999.90;999.90;;;;;;;;;;4975799;28;20129;-91
2021/11/27 04:49:34;;;;;;;1999.90;999.90;;;;;;;;;;4992333;28;20052;-89
2021/11/27 04:52:03;;;;;;;1667.80;760.85;;;;;;;;;;4976037;28;20034;-90
2021/11/27 04:54:30;;;;;;;1999.90;999.90;;;;;;;;;;4979574;28;20029;-91
2021/11/27 04:56:57;;;;;;;994.65;72.32;;;;;;;;;;4979000;28;20507;-90
2021/11/27 04:59:26;;;;;;;1999.90;999.90;;;;;;;;;;4995402;28;20030;-89
2021/11/27 05:01:52;;;;;;;1999.90;999.90;;;;;;;;;;4994324;28;20396;-89
2021/11/27 05:04:17;;;;;;;1999.90;999.90;;;;;;;;;;4995846;28;20026;-90
2021/11/27 05:06:43;;;;;;;1999.90;999.90;;;;;;;;;;4994643;28;20546;-89
2021/11/27 05:09:08;;;;;;;895.47;65.88;;;;;;;;;;4961166;28;20042;-90
2021/11/27 05:11:38;;;;;;;1999.90;999.90;;;;;;;;;;4959330;28;20136;-89
2021/11/27 05:14:04;;;;;;;1999.90;999.90;;;;;;;;;;4975757;28;20134;-86
2021/11/27 05:16:30;;;;;;;1999.90;999.90;;;;;;;;;;4943718;28;20027;-86
2021/11/27 05:18:59;;;;;;;1170.95;325.38;;;;;;;;;;4959646;28;20038;-90
2021/11/27 05:21:26;;;;;;;1999.90;999.90;;;;;;;;;;4975370;28;20093;-89
2021/11/27 05:23:55;;;;;;;1655.43;760.15;;;;;;;;;;4975872;28;20053;-87
2021/11/27 05:26:21;;;;;;;1999.90;999.90;;;;;;;;;;4961620;28;20031;-89
2021/11/27 05:28:47;;;;;;;1723.85;772.40;;;;;;;;;;4947133;28;20089;-87
2021/11/27 05:31:15;;;;;;;602.58;53.58;;;;;;;;;;4996954;28;20113;-90
2021/11/27 05:36:13;;;;;;;1999.90;999.90;;;;;;;;;;4998380;28;20033;-88
2021/11/27 05:38:41;;;;;;;874.03;68.93;;;;;;;;;;4982282;28;20033;-88
2021/11/27 05:41:06;;;;;;;1277.47;517.13;;;;;;;;;;4981482;28;20034;-89
2021/11/27 05:43:32;;;;;;;1999.90;999.90;;;;;;;;;;4997933;28;20115;-88
2021/11/27 05:45:58;;;;;;;1221.38;514.58;;;;;;;;;;4994320;28;20045;-87
2021/11/27 05:48:23;;;;;;;1999.90;999.90;;;;;;;;;;4962332;28;20073;-89
2021/11/27 05:50:50;;;;;;;1999.90;999.90;;;;;;;;;;4978199;28;20030;-88
2021/11/27 05:53:18;;;;;;;1689.18;761.85;;;;;;;;;;4978216;28;20060;-87
2021/11/27 05:55:47;;;;;;;1999.90;999.90;;;;;;;;;;4998286;28;20037;-90
2021/11/27 05:58:17;;;;;;;1999.90;999.90;;;;;;;;;;4982063;28;20030;-85
2021/11/27 06:00:44;;;;;;;1674.30;762.33;;;;;;;;;;4994942;28;20036;-88
2021/11/27 06:03:13;;;;;;;1999.90;999.90;;;;;;;;;;4981768;28;20504;-90
2021/11/27 06:05:39;;;;;;;1999.90;999.90;;;;;;;;;;4981642;28;20049;-89
2021/11/27 06:08:06;;;;;;;1706.55;763.63;;;;;;;;;;4988493;28;20034;-89
2021/11/27 06:10:32;;;;;;;1999.90;999.90;;;;;;;;;;4962403;28;20037;-88
2021/11/27 06:13:01;;;;;;;1999.90;999.90;;;;;;;;;;4962072;28;20133;-89
2021/11/27 06:15:26;;;;;;;1999.90;999.90;;;;;;;;;;4989967;28;20120;-89
2021/11/27 06:17:54;;;;;;;1999.90;999.90;;;;;;;;;;4997680;28;20037;-88
2021/11/27 06:20:22;;;;;;;1999.90;999.90;;;;;;;;;;4981013;28;20034;-86
2021/11/27 06:22:47;;;;;;;1671.00;760.55;;;;;;;;;;4997321;28;20038;-88
2021/11/27 06:25:12;;;;;;;1999.90;999.90;;;;;;;;;;4993565;28;20042;-89
2021/11/27 06:27:38;;;;;;;1999.90;999.90;;;;;;;;;;4977624;28;20164;-87
2021/11/27 06:30:08;;;;;;;1999.90;999.90;;;;;;;;;;4977128;28;20076;-87
2021/11/27 06:32:33;;;;;;;1999.90;999.90;;;;;;;;;;4962006;28;20500;-88
2021/11/27 06:34:58;;;;;;;1211.72;514.00;;;;;;;;;;4976478;28;20037;-86
2021/11/27 06:37:24;;;;;;;1999.90;999.90;;;;;;;;;;4978181;28;20037;-89
2021/11/27 06:39:50;;;;;;;1999.90;999.90;;;;;;;;;;4996366;28;20412;-89
2021/11/27 06:42:16;;;;;;;1999.90;999.90;;;;;;;;;;4996499;28;20033;-88
2021/11/27 06:44:49;;;;;;;1999.90;999.90;;;;;;;;;;4996182;28;20037;-87
2021/11/27 06:47:19;;;;;;;;;;;;;;;;;;4997872;28;20108;-89
2021/11/27 06:49:45;;;;;;;1999.90;999.90;;;;;;;;;;5013733;28;19910;-90
2021/11/27 06:52:12;;;;;;;1601.78;758.88;;;;;;;;;;4981161;28;20041;-93
2021/11/27 06:54:38;;;;;;;1999.90;999.90;;;;;;;;;;4998422;28;20034;-90
2021/11/27 06:57:06;;;;;;;1999.90;999.90;;;;;;;;;;4980840;28;20034;-88
2021/11/27 06:59:32;;;;;;;1634.55;759.20;;;;;;;;;;4980779;28;20083;-93
2021/11/27 07:01:58;;;;;;;1999.90;999.90;;;;;;;;;;4980619;28;20507;-88
2021/11/27 07:04:23;;;;;;;1999.90;999.90;;;;;;;;;;4996226;28;20030;-90
2021/11/27 07:06:51;;;;;;;1636.30;758.42;;;;;;;;;;4980468;28;20080;-93
2021/11/27 07:09:18;;;;;;;1635.03;758.05;;;;;;;;;;4992337;28;20468;-93
2021/11/27 07:11:49;;;;;;;1999.90;999.90;;;;;;;;;;4980334;28;20034;-92
2021/11/27 07:14:18;;;;;;;1999.90;999.90;;;;;;;;;;4996851;28;20034;-92
2021/11/27 07:16:43;;;;;;;1999.90;999.90;;;;;;;;;;4980631;28;20041;-92
2021/11/27 07:19:09;;;;;;;1999.90;999.90;;;;;;;;;;4964533;28;20034;-88
2021/11/27 07:21:34;;;;;;;1999.90;999.90;;;;;;;;;;4995491;28;20126;-88
2021/11/27 07:24:00;;;;;;;1999.90;999.90;;;;;;;;;;4995687;28;20041;-86
2021/11/27 07:26:26;;;;;;;1660.07;760.75;;;;;;;;;;4959811;28;20041;-86
2021/11/27 07:28:52;;;;;;;1999.90;999.90;;;;;;;;;;4974027;28;20042;-85
2021/11/27 07:31:17;;;;;;;1999.90;999.90;;;;;;;;;;4979724;28;20072;-88
2021/11/27 07:33:43;;;;;;;1999.90;999.90;;;;;;;;;;4980046;28;20488;-87
2021/11/27 07:36:09;;;;;;;1658.00;760.75;;;;;;;;;;4986334;28;20038;-84
2021/11/27 07:38:35;;;;;;;1999.90;999.90;;;;;;;;;;4982119;28;20054;-86
2021/11/27 07:41:01;;;;;;;1999.90;999.90;;;;;;;;;;4959293;28;20038;-87
2021/11/27 07:43:26;;;;;;;1999.90;999.90;;;;;;;;;;4976327;28;20089;-88
2021/11/27 07:45:53;;;;;;;1999.90;999.90;;;;;;;;;;4975123;28;20121;-86
2021/11/27 07:48:18;;;;;;;1649.25;768.40;;;;;;;;;;4995152;28;20049;-89
2021/11/27 07:50:45;;;;;;;1999.90;999.90;;;;;;;;;;4978613;28;20042;-85
2021/11/27 07:53:11;;;;;;;946.83;73.28;;;;;;;;;;4995017;28;20042;-86
2021/11/27 07:55:37;;;;;;;1553.45;542.72;;;;;;;;;;4978979;28;20065;-86
2021/11/27 07:58:02;;;;;;;1999.90;999.90;;;;;;;;;;4979264;28;20076;-86
2021/11/27 08:00:28;;;;;;;720.75;140.05;;;;;;;;;;5021800;28;20034;-85
2021/11/27 08:02:53;;;;;;;1400.95;156.82;;;;;;;;;;4975371;28;20034;-85
2021/11/27 08:05:20;;;;;;;1999.90;999.90;;;;;;;;;;4992086;28;20034;-87
2021/11/27 08:07:45;;;;;;;1999.90;999.90;;;;;;;;;;4971768;28;20031;-86
2021/11/27 08:10:12;;;;;;;1999.90;999.90;;;;;;;;;;4974983;28;20038;-88
2021/11/27 08:12:37;;;;;;;1946.70;395.95;;;;;;;;;;4959678;28;20034;-86
2021/11/27 08:15:04;;;;;;;1999.90;999.90;;;;;;;;;;4980883;28;20049;-87
2021/11/27 08:17:29;;;;;;;1712.15;767.92;;;;;;;;;;4943561;28;20034;-85
2021/11/27 08:19:55;;;;;;;1999.60;598.97;;;;;;;;;;4959169;28;20038;-86
2021/11/27 08:22:21;;;;;;;1589.45;580.72;;;;;;;;;;4943065;28;20038;-84
2021/11/27 08:24:48;;;;;;;1870.43;233.73;;;;;;;;;;4958589;28;20038;-85
2021/11/27 08:27:14;;;;;;;1999.90;999.90;;;;;;;;;;4959845;28;20038;-85
2021/11/27 08:29:40;;;;;;;1999.90;428.45;;;;;;;;;;4962693;28;20034;-84
2021/11/27 08:32:05;;;;;;;1999.90;310.98;;;;;;;;;;4968930;28;20034;-84
2021/11/27 08:34:31;;;;;;;1999.90;334.92;;;;;;;;;;4993956;28;20038;-85
2021/11/27 08:36:57;;;;;;;1999.90;653.25;;;;;;;;;;4999024;28;20040;-85
2021/11/27 08:39:23;;;;;;;1946.55;341.27;;;;;;;;;;5003440;28;20112;-84
2021/11/27 08:41:48;;;;;;;1999.90;524.95;;;;;;;;;;4961405;28;20042;-85
2021/11/27 08:44:13;;;;;;;1999.90;502.98;;;;;;;;;;4973441;28;20037;-85
2021/11/27 08:46:39;;;;;;;1999.90;497.30;;;;;;;;;;4991233;28;20038;-85
2021/11/27 08:49:05;;;;;;;1999.90;535.88;;;;;;;;;;5000617;28;20038;-85
2021/11/27 08:51:30;;;;;;;1999.90;599.08;;;;;;;;;;4977859;28;20034;-85
2021/11/27 08:53:56;;;;;;;1999.90;606.95;;;;;;;;;;4994208;28;20045;-85
2021/11/27 08:56:22;;;;;;;1999.90;656.20;;;;;;;;;;4978302;28;20033;-85
2021/11/27 08:58:49;;;;;;;1999.90;722.17;;;;;;;;;;4961798;28;20038;-85
2021/11/27 09:01:15;;;;;;;1999.90;513.72;;;;;;;;;;4971002;28;20033;-86
2021/11/27 09:03:42;;;;;;;1999.90;523.40;;;;;;;;;;4962476;28;20037;-85
2021/11/27 09:06:08;;;;;;;1999.90;625.40;;;;;;;;;;4962409;28;20035;-83
2021/11/27 09:08:36;;;;;;;1999.90;616.10;;;;;;;;;;4972546;28;20088;-85
2021/11/27 09:11:01;;;;;;;1999.90;455.27;;;;;;;;;;4978385;28;20031;-85
2021/11/27 09:13:27;;;;;;;1999.90;409.80;;;;;;;;;;4978362;28;20761;-84
2021/11/27 09:15:54;;;;;;;1999.90;815.65;;;;;;;;;;4978265;28;20034;-85
2021/11/27 09:18:19;;;;;;;1999.90;905.67;;;;;;;;;;4962761;28;20069;-86
2021/11/27 09:20:45;;;;;;;1999.90;597.15;;;;;;;;;;4962269;28;20031;-85
2021/11/27 09:23:13;;;;;;;1999.90;767.45;;;;;;;;;;4978220;28;20038;-85
2021/11/27 09:25:39;;;;;;;1999.90;689.38;;;;;;;;;;4978596;28;20034;-88
2021/11/27 09:28:04;;;;;;;1999.90;571.65;;;;;;;;;;4961923;28;20035;-87
2021/11/27 09:30:30;;;;;;;1999.90;391.10;;;;;;;;;;4961969;28;20045;-84
2021/11/27 09:32:57;;;;;;;1999.90;717.58;;;;;;;;;;4979019;28;20042;-93
2021/11/27 09:35:25;;;;;;;1999.90;567.42;;;;;;;;;;4970368;28;20034;-92
2021/11/27 09:37:52;;;;;;;1999.90;482.95;;;;;;;;;;4963085;28;20038;-94
2021/11/27 09:40:21;;;;;;;1999.90;570.55;;;;;;;;;;4947045;28;20034;-93
2021/11/27 09:42:53;;;;;;;1999.90;716.47;;;;;;;;;;4979166;28;20042;-93
2021/11/27 09:45:25;;;;;;;1999.90;600.08;;;;;;;;;;4963091;28;20069;-93
2021/11/27 09:47:51;;;;;;;;;;;;;;;;;;4982480;28;20076;-85
2021/11/27 09:50:19;;;;;;;1999.90;319.80;;;;;;;;;;5014799;28;19913;-87
2021/11/27 09:52:47;;;;;;;1999.90;433.52;;;;;;;;;;4978304;28;20026;-88
2021/11/27 09:55:16;;;;;;;1999.90;721.65;;;;;;;;;;4979021;28;20031;-83
2021/11/27 09:57:48;;;;;;;1999.90;703.38;;;;;;;;;;4988949;28;20034;-88
2021/11/27 10:00:15;;;;;;;;;;;;;;;;;;4973034;28;20527;-93
2021/11/27 10:02:43;;;;;;;1959.20;807.72;;;;;;;;;;4998483;28;19979;-90
2021/11/27 10:05:10;;;;;;;1999.90;283.88;;;;;;;;;;4982008;28;20116;-91
2021/11/27 10:07:35;;;;;;;1640.13;416.48;;;;;;;;;;4978267;28;20124;-86
2021/11/27 10:10:00;;;;;;;1999.90;438.35;;;;;;;;;;4972869;28;20397;-88
2021/11/27 10:12:26;;;;;;;1936.18;309.02;;;;;;;;;;4960319;28;20039;-90
2021/11/27 10:14:52;;;;;;;1999.90;458.10;;;;;;;;;;4961141;28;20062;-87
2021/11/27 10:17:20;;;;;;;1999.90;310.95;;;;;;;;;;4978552;28;20039;-86
2021/11/27 10:19:54;;;;;;;1999.90;618.65;;;;;;;;;;4962577;28;20030;-88
2021/11/27 10:22:42;;;;;;;1806.07;207.88;;;;;;;;;;4962886;28;20042;-89
2021/11/27 10:25:32;;;;;;;1999.90;469.05;;;;;;;;;;4962721;28;20027;-89
2021/11/27 10:28:18;;;;;;;1999.90;699.58;;;;;;;;;;4962311;28;20492;-89
2021/11/27 10:30:49;;;;;;;1999.90;672.97;;;;;;;;;;4963434;28;20508;-88
2021/11/27 10:33:16;;;;;;;1999.90;375.63;;;;;;;;;;4946147;28;20034;-88
2021/11/27 10:35:49;;;;;;;1999.90;464.65;;;;;;;;;;4961651;28;20057;-89
2021/11/27 10:38:17;;;;;;;1965.45;442.33;;;;;;;;;;4962298;28;20054;-89
2021/11/27 10:40:46;;;;;;;1772.07;406.05;;;;;;;;;;4967628;28;20026;-89
2021/11/27 10:43:15;;;;;;;1999.90;362.88;;;;;;;;;;4997628;28;20041;-89
2021/11/27 10:45:41;;;;;;;1891.80;457.05;;;;;;;;;;4997688;28;20120;-88
2021/11/27 10:48:11;;;;;;;1999.90;630.13;;;;;;;;;;4981333;28;20041;-88
2021/11/27 10:50:47;;;;;;;1973.43;629.08;;;;;;;;;;4981262;28;20496;-89
2021/11/27 10:53:18;;;;;;;1999.90;403.80;;;;;;;;;;4981638;28;20045;-89
2021/11/27 10:55:46;;;;;;;1999.90;404.05;;;;;;;;;;4980785;28;20066;-87
2021/11/27 10:58:13;;;;;;;1809.47;275.33;;;;;;;;;;4964908;28;20076;-88
2021/11/27 11:00:48;;;;;;;1999.90;381.98;;;;;;;;;;4996934;28;20452;-90
2021/11/27 11:03:30;;;;;;;1999.90;269.98;;;;;;;;;;4980749;28;20084;-87
2021/11/27 11:05:58;;;;;;;1999.90;759.37;;;;;;;;;;4980216;28;20488;-88
2021/11/27 11:08:34;;;;;;;1958.45;354.42;;;;;;;;;;4978010;28;20069;-87
2021/11/27 11:11:24;;;;;;;1999.90;398.80;;;;;;;;;;4961251;28;20041;-88
2021/11/27 11:13:55;;;;;;;1999.90;690.50;;;;;;;;;;4976848;28;20058;-87
2021/11/27 11:16:26;;;;;;;1999.90;406.13;;;;;;;;;;4961654;28;20547;-87
2021/11/27 11:19:16;;;;;;;1952.03;382.13;;;;;;;;;;4960805;28;20089;-88
2021/11/27 11:22:17;;;;;;;1089.60;69.85;;;;;;;;;;4977013;28;20039;-88
2021/11/27 11:24:45;;;;;;;1999.90;999.90;;;;;;;;;;4924718;28;20047;-88
2021/11/27 11:27:12;;;;;;;1999.90;253.07;;;;;;;;;;4953210;28;20046;-84
2021/11/27 11:29:48;;;;;;;1814.72;781.97;;;;;;;;;;4960929;28;20061;-85
2021/11/27 11:32:22;;;;;;;1968.00;832.63;;;;;;;;;;4960706;28;20077;-85
2021/11/27 11:34:49;;;;;;;1721.70;215.20;;;;;;;;;;4980688;28;20042;-88
2021/11/27 11:37:17;;;;;;;1740.03;776.80;;;;;;;;;;4964360;28;20488;-87
2021/11/27 11:39:43;;;;;;;1999.90;265.33;;;;;;;;;;4980035;28;20026;-89
2021/11/27 11:42:08;;;;;;;1690.18;223.45;;;;;;;;;;4980033;28;20467;-87
2021/11/27 11:44:36;;;;;;;1890.05;228.00;;;;;;;;;;4963423;28;20104;-86
2021/11/27 11:47:03;;;;;;;1999.90;445.38;;;;;;;;;;4963090;28;20041;-89
2021/11/27 11:49:30;;;;;;;1820.15;790.15;;;;;;;;;;4979499;28;20499;-87
2021/11/27 11:52:16;;;;;;;1483.60;189.40;;;;;;;;;;4979320;28;20025;-88
2021/11/27 11:54:42;;;;;;;1999.90;267.08;;;;;;;;;;4965752;28;20044;-86
2021/11/27 11:57:09;;;;;;;1808.45;201.13;;;;;;;;;;4979417;28;20488;-88
2021/11/27 11:59:42;;;;;;;1915.25;795.90;;;;;;;;;;4963993;28;20377;-87
2021/11/27 12:02:16;;;;;;;1888.13;168.63;;;;;;;;;;4964857;28;20121;-88
2021/11/27 12:05:15;;;;;;;1973.43;808.58;;;;;;;;;;4979491;28;20076;-87
2021/11/27 12:07:43;;;;;;;1622.18;155.55;;;;;;;;;;4947834;28;20038;-88
2021/11/27 12:10:24;;;;;;;1999.90;613.70;;;;;;;;;;4995328;28;20037;-87
2021/11/27 12:13:07;;;;;;;1817.93;201.38;;;;;;;;;;4995775;28;20034;-88
2021/11/27 12:15:42;;;;;;;1825.60;575.22;;;;;;;;;;4995754;28;20034;-88
2021/11/27 12:18:19;;;;;;;1999.90;607.47;;;;;;;;;;4977786;28;20051;-88
2021/11/27 12:20:58;;;;;;;1629.70;147.38;;;;;;;;;;4974692;28;20496;-87
2021/11/27 12:23:38;;;;;;;1729.18;233.93;;;;;;;;;;5011205;28;20100;-88
2021/11/27 12:26:07;;;;;;;1899.50;798.92;;;;;;;;;;4995237;28;20121;-87
2021/11/27 12:28:42;;;;;;;1999.90;999.90;;;;;;;;;;5011612;28;20045;-88
2021/11/27 12:31:40;;;;;;;1872.47;194.95;;;;;;;;;;4963882;28;20042;-88
2021/11/27 12:34:09;;;;;;;1999.90;999.90;;;;;;;;;;4981680;28;20092;-87
2021/11/27 12:36:39;;;;;;;1999.90;999.90;;;;;;;;;;4965961;28;20100;-87
2021/11/27 12:39:22;;;;;;;1763.32;165.45;;;;;;;;;;4999781;28;20100;-88
2021/11/27 12:41:49;;;;;;;1814.82;579.10;;;;;;;;;;5015759;28;20038;-88
2021/11/27 12:44:22;;;;;;;1999.90;999.90;;;;;;;;;;4999852;28;20033;-89
2021/11/27 12:46:50;;;;;;;;;;;;;;;;;;5003412;28;20118;-87
2021/11/27 12:49:32;;;;;;;1999.90;999.90;;;;;;;;;;4963595;28;19909;-87
2021/11/27 12:52:16;;;;;;;1999.90;999.90;;;;;;;;;;4997256;28;20026;-86
2021/11/27 12:54:43;;;;;;;1451.00;540.22;;;;;;;;;;5005279;28;20049;-87
2021/11/27 12:57:11;;;;;;;1999.90;999.90;;;;;;;;;;4998984;28;20037;-88
2021/11/27 12:59:44;;;;;;;1676.85;227.05;;;;;;;;;;4982386;28;20496;-86
2021/11/27 13:02:12;;;;;;;1378.05;533.63;;;;;;;;;;4987319;28;20033;-87
2021/11/27 13:04:41;;;;;;;1860.20;780.47;;;;;;;;;;4985835;28;20033;-89
2021/11/27 13:07:09;;;;;;;1738.75;542.67;;;;;;;;;;5017407;28;20557;-88
2021/11/27 13:09:35;;;;;;;1554.45;546.45;;;;;;;;;;4998788;28;20052;-88
2021/11/27 13:12:14;;;;;;;1669.00;546.40;;;;;;;;;;4982624;28;20034;-88
2021/11/27 13:14:39;;;;;;;1999.90;999.90;;;;;;;;;;4968414;28;20404;-88
2021/11/27 13:17:11;;;;;;;1746.55;766.75;;;;;;;;;;4966961;28;20038;-88
2021/11/27 13:19:38;;;;;;;1194.10;368.47;;;;;;;;;;4982847;28;20037;-89
2021/11/27 13:22:16;;;;;;;1999.90;999.90;;;;;;;;;;4978804;28;20100;-87
2021/11/27 13:25:02;;;;;;;1943.80;782.22;;;;;;;;;;4947648;28;20034;-89
2021/11/27 13:27:29;;;;;;;1803.63;772.85;;;;;;;;;;4963362;28;20094;-89
2021/11/27 13:30:06;;;;;;;1265.78;104.30;;;;;;;;;;4978873;28;20535;-89
2021/11/27 13:32:44;;;;;;;1999.90;999.90;;;;;;;;;;4979581;28;20076;-88
2021/11/27 13:35:11;;;;;;;1802.47;780.03;;;;;;;;;;4965744;28;20069;-88
2021/11/27 13:37:44;;;;;;;1534.45;553.78;;;;;;;;;;4982155;28;20030;-88
2021/11/27 13:40:20;;;;;;;;;;;;;;;;;;4999397;28;20105;-88
2021/11/27 13:42:49;;;;;;;1626.72;757.63;;;;;;;;;;4995316;28;19918;-87
2021/11/27 13:45:15;;;;;;;1334.10;525.25;;;;;;;;;;4962034;28;20137;-86
2021/11/27 13:47:41;;;;;;;1999.90;999.90;;;;;;;;;;4978621;28;20034;-87
2021/11/27 13:50:13;;;;;;;1999.90;999.90;;;;;;;;;;4962444;28;20049;-86
2021/11/27 13:52:47;;;;;;;1999.90;999.90;;;;;;;;;;4947056;28;20504;-85
2021/11/27 13:55:20;;;;;;;1776.95;782.20;;;;;;;;;;4994430;28;20424;-89